Aérodrome :
LOGIN :

S'inscrire | Disclaimer

   EN    FR    IT 

 










Légende :    VFR   VFR Marginal   IFR   IFR Intensif   IFR Très Intensif
Visi : 
Plafond : 
>= 8 km
>= 3000ft
5 à 8 km
1000 à 3000 ft
1500m à 5 km
500 à 1000 ft
800 à 1500m
200 à 500 ft
< 800m
< 200 ft
Symboles :   Orages  Brouillard  Fortes neiges  Fortes précipitations  Vent > 20 kt
SIGMETs :   Divers  Orages  Givrage  Turbulence  Onde Orograph.  Cendres Volcan.







- Altitude de l'aérodrome : 220 ft
- Code IATA : CWL
- Voir les cartes d'approche


EGFF - Cardiff Rhoose

DERNIER METAR :
  • 201020Z 29009KT 9999 6000S VCFG FEW007 13/11 Q1025

METARs EXPIRÉS :
  • 200950Z 28006KT 9999 VCFG FEW007 12/11 Q1025
  • 200920Z 30007KT 9000 VCFG SCT004 11/10 Q1025
  • 200850Z 30008KT 9000 4000SW VCFG BKN005 10/10 Q1025
  • 200820Z 29008KT 8000 3900SW VCFG BKN003 10/10 Q1025
  • 200750Z AUTO 30009KT 9999 OVC002 10/10 Q1025

TAF AMD TAF EGFF
Valide du 20 à 07h jusqu'au 21 à 06h UTC


200732Z 2007/2106 28010KT 0300 FG VV///
TEMPO 2007/2008 8000 NSW BKN002
BECMG 2008/2011 9999 NSW FEW015
PROB30
TEMPO 2011/2015 BKN008
BECMG 2022/2101 VRB03KT
BECMG 2104/2106 06010KT
ATIS : +44 1446 729 319
Pas de NOTAMs connus pour ce terrain.



MET'MAP, la Météo Aéronautique d'un coup d'oeil ! - Copyright ORBIFLY Décembre 2007 - Disclaimer

ORBIFLY MET'MAP TEAM :

Programmation & Développement : Alexandra Zaïnal
Conception & Développement : Baudouin d'Aumeries
Co-Programmation & Développement : Marc-Olivier Méhu
Soutien technique & logistique : Manuel Goepfert

Contact : metmap@orbifly.com




SOURCES & CREDITS :

   NOAA